Kalaheo, HI

1:57 AM HST on August 28, 2016 (GMT -1000)
Lawai | | Change Station

Elev 512 ft 21.92 °N, 159.51 °W | Updated 8 seconds ago

Mostly Cloudy
Mostly Cloudy
72.3 °F
Feels Like 72.3 °F
N
0.0
Wind Variable Wind from East
Gusts 3.0 mph

Today
High -- | Low -- °F
--% Chance of Precip.
Yesterday
High -- | Low -- °F
Precip. -- in
Pressure 29.95 in
Visibility 10.0 miles
Clouds Few 2200 ft
Few 2600 ft
Mostly Cloudy 6000 ft
Dew Point 70 °F
Humidity 92%
Rainfall 0.00 in
Snow Depth Not available.
6:20 AM 6:57 PM
Waning Crescent, 16% visible
METAR PHLI 281153Z 07017KT 10SM FEW022 FEW026 BKN060 26/21 A2996 RMK AO2 SLP141 60002 70007 T02560211 10256 20244 58016
Pressure 29.95 in
Visibility 10.0 miles
Clouds Few 2200 ft
Few 2600 ft
Mostly Cloudy 6000 ft
Dew Point 70 °F
Humidity 92%
Rainfall 0.00 in
Snow Depth Not available.
6:20 AM 6:57 PM
Waning Crescent, 16% visible
METAR PHLI 281153Z 07017KT 10SM FEW022 FEW026 BKN060 26/21 A2996 RMK AO2 SLP141 60002 70007 T02560211 10256 20244 58016

10-Day Weather Forecast

Almanac

Astronomy

Aug. 28, 2016 Rise Set
Actual Time
Civil Twilight
Nautical Twilight
Astronomical Twilight
Moon
Length of Visible Light
Length of Day
Tomorrow will be .
, % of the Moon is Illuminated

Today's Extremes

State Highs State Lows

Community

WunderPhotos

Upload Photos

1,935,549 photos uploaded!

WunderBlog® & News

Nearby

Air Quality

  Air Quality AQ Index Pollutant
Not available.

Snow Depth

Station Depth Elevation

Earthquake Activity

City Distance Mag. Time & Date
Minimum magnitude displayed is 2.5.

Coastal Water Temperatures

Place Temperature

Stations

Nearby Weather Stations

Station Location Temp. Windchill Dew Point Humidity Wind Precip. Elev Updated Type
                   

Watches & Warnings

There are currently no watches in effect.